Crown II — 9HA3829 — position and weather

sailwx.info

Track history (hours):
 
Tides and Currents Weather Stations Pressure Air Temp Water Temp Dewpoint Dewpoint Depression Visibility Wind Speed Wind Dir Waves Ship Positions

Crown II

Last reported at 2017-Oct-18 10:52 UTC. Time now 2017-Oct-18 11:08 UTC.
Position N 36°07' W 005°21'.

Length 183 m; draft 10.7 m.

Type: Tanker. MMSI: 256123000.

Date/timePositionNaut miles runAvg speedWind from/ knotsBaromVisibWave heightAir tempDewpointWater temp
2017-Oct-18 10:52N 36°07' W 005°21'0 0.1
2017-Oct-18 10:28N 36°07' W 005°22'0 0.1
2017-Oct-18 09:52N 36°07' W 005°22'0 0.0
2017-Oct-18 08:46N 36°07' W 005°22'0 0.1
2017-Oct-18 08:22N 36°07' W 005°22'0 0.2
2017-Oct-18 07:55N 36°07' W 005°22'0 0.3
2017-Oct-18 07:30N 36°07' W 005°21'2 3.1
2017-Oct-18 07:00N 36°06' W 005°22'1 2.3
2017-Oct-18 06:30N 36°05' W 005°20'3 6.2
2017-Oct-18 06:00N 36°05' W 005°17'3 5.6
2017-Oct-18 05:30N 36°06' W 005°13'2 4.1
2017-Oct-18 05:00N 36°06' W 005°11'4 7.6
2017-Oct-18 04:29N 36°07' W 005°06'  
2017-Oct-13 16:24N 37°04' E 006°52'0 0.4
2017-Oct-13 16:01N 37°04' E 006°52'0 0.4
2017-Oct-13 15:30N 37°04' E 006°52'0 0.4
2017-Oct-13 15:00N 37°04' E 006°52'1 0.3
2017-Oct-13 12:44N 37°04' E 006°53'0 0.3
2017-Oct-13 12:16N 37°04' E 006°53'0 0.2
2017-Oct-13 11:25N 37°04' E 006°53'72 8.7
2017-Oct-13 03:05N 37°11' E 005°23'112.9
2017-Oct-13 03:00N 37°11' E 005°22'2412.6
2017-Oct-13 01:07N 37°12' E 004°52'112.8
2017-Oct-13 01:00N 37°12' E 004°51'1912.7
2017-Oct-12 23:33N 37°11' E 004°27'612.8
2017-Oct-12 23:05N 37°11' E 004°20'512.8
2017-Oct-12 22:40N 37°11' E 004°13'8112.8
2017-Oct-12 16:22N 37°07' E 002°32'512.8
2017-Oct-12 16:00N 37°06' E 002°26'712.9
2017-Oct-12 15:30N 37°04' E 002°18'713.3
2017-Oct-12 15:00N 37°03' E 002°10'713.2
2017-Oct-12 14:30N 37°02' E 002°02'713.0
2017-Oct-12 14:00N 37°01' E 001°54'713.0
2017-Oct-12 13:29N 36°59' E 001°46'913.0
2017-Oct-12 12:47N 36°57' E 001°35'413.0
2017-Oct-12 12:30N 36°57' E 001°30'713.1
2017-Oct-12 12:00N 36°56' E 001°22'612.9
2017-Oct-12 11:30N 36°54' E 001°14'712.9
2017-Oct-12 10:58N 36°52' E 001°06'612.8
2017-Oct-12 10:30N 36°52' E 000°58'612.6
2017-Oct-12 10:00N 36°51' E 000°51'612.7
2017-Oct-12 09:30N 36°49' E 000°43'1313.1
2017-Oct-12 08:32N 36°47' E 000°27'212.9
2017-Oct-12 08:21N 36°47' E 000°24'412.9
2017-Oct-12 08:00N 36°46' E 000°19'3113.1
2017-Oct-12 05:41N 36°40' W 000°18'213.3
2017-Oct-12 05:30N 36°39' W 000°21'813.2
2017-Oct-12 04:55N 36°37' W 000°31'512.9
2017-Oct-12 04:30N 36°36' W 000°37'613.0
2017-Oct-12 04:00N 36°36' W 000°45'713.2
2017-Oct-12 03:30N 36°33' W 000°53'713.0
2017-Oct-12 02:58N 36°33' W 001°02'34512.8
2017-Oct-10 23:57N 36°03' W 008°08'512.0
2017-Oct-10 23:30N 36°04' W 008°15'611.9
2017-Oct-10 22:58N 36°04' W 008°22'612.3
2017-Oct-10 22:30N 36°05' W 008°29'612.7
2017-Oct-10 22:00N 36°05' W 008°37'612.5
2017-Oct-10 21:30N 36°06' W 008°45'612.3
2017-Oct-10 21:00N 36°07' W 008°53'612.3
2017-Oct-10 20:30N 36°07' W 009°00'612.6
2017-Oct-10 20:00N 36°08' W 009°08'612.8
2017-Oct-10 19:30N 36°08' W 009°16'612.6
2017-Oct-10 19:00N 36°09' W 009°23'612.7
2017-Oct-10 18:30N 36°10' W 009°31'612.7
2017-Oct-10 18:00N 36°10' W 009°39'612.8
2017-Oct-10 17:30N 36°11' W 009°47'612.6
2017-Oct-10 17:00N 36°12' W 009°55'612.4
2017-Oct-10 16:30N 36°12' W 010°02'612.5
2017-Oct-10 16:00N 36°13' W 010°10'612.8
2017-Oct-10 15:30N 36°13' W 010°18'713.1
2017-Oct-10 15:00N 36°14' W 010°26'1312.7
2017-Oct-10 14:00N 36°15' W 010°42'612.5
2017-Oct-10 13:30N 36°16' W 010°49'612.4
2017-Oct-10 13:00N 36°16' W 010°57'612.7
2017-Oct-10 12:30N 36°17' W 011°05'612.7
2017-Oct-10 12:00N 36°18' W 011°13'612.7
2017-Oct-10 11:30N 36°19' W 011°21'612.9
2017-Oct-10 11:00N 36°19' W 011°29'612.9
2017-Oct-10 10:30N 36°20' W 011°36'612.9
2017-Oct-10 10:00N 36°20' W 011°44'712.9
2017-Oct-10 09:28N 36°21' W 011°53'612.6
2017-Oct-10 09:00N 36°22' W 012°00'612.5
2017-Oct-10 08:30N 36°22' W 012°08'612.6
2017-Oct-10 08:00N 36°23' W 012°16'612.6
2017-Oct-10 07:30N 36°23' W 012°24'612.8
2017-Oct-10 07:00N 36°24' W 012°31'612.7
2017-Oct-10 06:30N 36°25' W 012°39'612.8
2017-Oct-10 06:00N 36°25' W 012°47'612.7
2017-Oct-10 05:30N 36°26' W 012°55'612.6
2017-Oct-10 05:00N 36°27' W 013°03'612.6
2017-Oct-10 04:30N 36°27' W 013°11'612.6
2017-Oct-10 04:00N 36°28' W 013°18'612.6
2017-Oct-10 03:30N 36°28' W 013°26'612.8
2017-Oct-10 03:00N 36°29' W 013°34'612.9
2017-Oct-10 02:30N 36°30' W 013°42'712.8
2017-Oct-10 01:58N 36°30' W 013°51'612.8
2017-Oct-10 01:30N 36°31' W 013°58'712.6
2017-Oct-10 00:59N 36°31' W 014°06'612.3
2017-Oct-10 00:30N 36°32' W 014°14'612.1
2017-Oct-10 00:00N 36°33' W 014°21'612.4
2017-Oct-09 23:30N 36°33' W 014°29'612.6
2017-Oct-09 23:00N 36°34' W 014°36'712.7
2017-Oct-09 22:26N 36°35' W 014°45'512.5
2017-Oct-09 22:00N 36°35' W 014°52'612.4
2017-Oct-09 21:30N 36°36' W 014°60'3412.3
2017-Oct-09 18:45N 36°39' W 015°42'512.4
2017-Oct-09 18:19N 36°40' W 015°49'512.4
2017-Oct-09 17:56N 36°40' W 015°54'512.5
2017-Oct-09 17:30N 36°41' W 016°01'612.2
2017-Oct-09 17:00N 36°42' W 016°09'3312.3
2017-Oct-09 14:18N 36°45' W 016°50'812.3
2017-Oct-09 13:40N 36°45' W 016°60'2812.3
2017-Oct-09 11:24N 36°48' W 017°34'512.7
2017-Oct-09 10:58N 36°49' W 017°41'812.5
2017-Oct-09 10:18N 36°50' W 017°52'412.3
2017-Oct-09 09:58N 36°50' W 017°57'27612.6
2017-Oct-08 12:02N 37°17' W 023°41'112.7
2017-Oct-08 11:57N 37°17' W 023°42'612.8
2017-Oct-08 11:30N 37°18' W 023°49'613.1
2017-Oct-08 11:00N 37°19' W 023°58'  
Track history (hours):
 
Tides and Currents Weather Stations Pressure Air Temp Water Temp Dewpoint Dewpoint Depression Visibility Wind Speed Wind Dir Waves Ship Positions

Crown II

Last reported at 2017-Oct-18 10:52 UTC. Time now 2017-Oct-18 11:08 UTC.
Position N 36°07' W 005°21'.

Length 183 m; draft 10.7 m.

Type: Tanker. MMSI: 256123000.

Date/timePositionNaut miles runAvg speedWind from/ knotsBaromVisibWave heightAir tempDewpointWater temp
2017-Oct-18 10:52N 36°07' W 005°21'0 0.1
2017-Oct-18 10:28N 36°07' W 005°22'0 0.1
2017-Oct-18 09:52N 36°07' W 005°22'0 0.0
2017-Oct-18 08:46N 36°07' W 005°22'0 0.1
2017-Oct-18 08:22N 36°07' W 005°22'0 0.2
2017-Oct-18 07:55N 36°07' W 005°22'0 0.3
2017-Oct-18 07:30N 36°07' W 005°21'2 3.1
2017-Oct-18 07:00N 36°06' W 005°22'1 2.3
2017-Oct-18 06:30N 36°05' W 005°20'3 6.2
2017-Oct-18 06:00N 36°05' W 005°17'3 5.6
2017-Oct-18 05:30N 36°06' W 005°13'2 4.1
2017-Oct-18 05:00N 36°06' W 005°11'4 7.6
2017-Oct-18 04:29N 36°07' W 005°06'  
2017-Oct-13 16:24N 37°04' E 006°52'0 0.4
2017-Oct-13 16:01N 37°04' E 006°52'0 0.4
2017-Oct-13 15:30N 37°04' E 006°52'0 0.4
2017-Oct-13 15:00N 37°04' E 006°52'1 0.3
2017-Oct-13 12:44N 37°04' E 006°53'0 0.3
2017-Oct-13 12:16N 37°04' E 006°53'0 0.2
2017-Oct-13 11:25N 37°04' E 006°53'72 8.7
2017-Oct-13 03:05N 37°11' E 005°23'112.9
2017-Oct-13 03:00N 37°11' E 005°22'2412.6
2017-Oct-13 01:07N 37°12' E 004°52'112.8
2017-Oct-13 01:00N 37°12' E 004°51'1912.7
2017-Oct-12 23:33N 37°11' E 004°27'612.8
2017-Oct-12 23:05N 37°11' E 004°20'512.8
2017-Oct-12 22:40N 37°11' E 004°13'8112.8
2017-Oct-12 16:22N 37°07' E 002°32'512.8
2017-Oct-12 16:00N 37°06' E 002°26'712.9
2017-Oct-12 15:30N 37°04' E 002°18'713.3
2017-Oct-12 15:00N 37°03' E 002°10'713.2
2017-Oct-12 14:30N 37°02' E 002°02'713.0
2017-Oct-12 14:00N 37°01' E 001°54'713.0
2017-Oct-12 13:29N 36°59' E 001°46'913.0
2017-Oct-12 12:47N 36°57' E 001°35'413.0
2017-Oct-12 12:30N 36°57' E 001°30'713.1
2017-Oct-12 12:00N 36°56' E 001°22'612.9
2017-Oct-12 11:30N 36°54' E 001°14'712.9
2017-Oct-12 10:58N 36°52' E 001°06'612.8
2017-Oct-12 10:30N 36°52' E 000°58'612.6
2017-Oct-12 10:00N 36°51' E 000°51'612.7
2017-Oct-12 09:30N 36°49' E 000°43'1313.1
2017-Oct-12 08:32N 36°47' E 000°27'212.9
2017-Oct-12 08:21N 36°47' E 000°24'412.9
2017-Oct-12 08:00N 36°46' E 000°19'3113.1
2017-Oct-12 05:41N 36°40' W 000°18'213.3
2017-Oct-12 05:30N 36°39' W 000°21'813.2
2017-Oct-12 04:55N 36°37' W 000°31'512.9
2017-Oct-12 04:30N 36°36' W 000°37'613.0
2017-Oct-12 04:00N 36°36' W 000°45'713.2
2017-Oct-12 03:30N 36°33' W 000°53'713.0
2017-Oct-12 02:58N 36°33' W 001°02'34512.8
2017-Oct-10 23:57N 36°03' W 008°08'512.0
2017-Oct-10 23:30N 36°04' W 008°15'611.9
2017-Oct-10 22:58N 36°04' W 008°22'612.3
2017-Oct-10 22:30N 36°05' W 008°29'612.7
2017-Oct-10 22:00N 36°05' W 008°37'612.5
2017-Oct-10 21:30N 36°06' W 008°45'612.3
2017-Oct-10 21:00N 36°07' W 008°53'612.3
2017-Oct-10 20:30N 36°07' W 009°00'612.6
2017-Oct-10 20:00N 36°08' W 009°08'612.8
2017-Oct-10 19:30N 36°08' W 009°16'612.6
2017-Oct-10 19:00N 36°09' W 009°23'612.7
2017-Oct-10 18:30N 36°10' W 009°31'612.7
2017-Oct-10 18:00N 36°10' W 009°39'612.8
2017-Oct-10 17:30N 36°11' W 009°47'612.6
2017-Oct-10 17:00N 36°12' W 009°55'612.4
2017-Oct-10 16:30N 36°12' W 010°02'612.5
2017-Oct-10 16:00N 36°13' W 010°10'612.8
2017-Oct-10 15:30N 36°13' W 010°18'713.1
2017-Oct-10 15:00N 36°14' W 010°26'1312.7
2017-Oct-10 14:00N 36°15' W 010°42'612.5
2017-Oct-10 13:30N 36°16' W 010°49'612.4
2017-Oct-10 13:00N 36°16' W 010°57'612.7
2017-Oct-10 12:30N 36°17' W 011°05'612.7
2017-Oct-10 12:00N 36°18' W 011°13'612.7
2017-Oct-10 11:30N 36°19' W 011°21'612.9
2017-Oct-10 11:00N 36°19' W 011°29'612.9
2017-Oct-10 10:30N 36°20' W 011°36'612.9
2017-Oct-10 10:00N 36°20' W 011°44'712.9
2017-Oct-10 09:28N 36°21' W 011°53'612.6
2017-Oct-10 09:00N 36°22' W 012°00'612.5
2017-Oct-10 08:30N 36°22' W 012°08'612.6
2017-Oct-10 08:00N 36°23' W 012°16'612.6
2017-Oct-10 07:30N 36°23' W 012°24'612.8
2017-Oct-10 07:00N 36°24' W 012°31'612.7
2017-Oct-10 06:30N 36°25' W 012°39'612.8
2017-Oct-10 06:00N 36°25' W 012°47'612.7
2017-Oct-10 05:30N 36°26' W 012°55'612.6
2017-Oct-10 05:00N 36°27' W 013°03'612.6
2017-Oct-10 04:30N 36°27' W 013°11'612.6
2017-Oct-10 04:00N 36°28' W 013°18'612.6
2017-Oct-10 03:30N 36°28' W 013°26'612.8
2017-Oct-10 03:00N 36°29' W 013°34'612.9
2017-Oct-10 02:30N 36°30' W 013°42'712.8
2017-Oct-10 01:58N 36°30' W 013°51'612.8
2017-Oct-10 01:30N 36°31' W 013°58'712.6
2017-Oct-10 00:59N 36°31' W 014°06'612.3
2017-Oct-10 00:30N 36°32' W 014°14'612.1
2017-Oct-10 00:00N 36°33' W 014°21'612.4
2017-Oct-09 23:30N 36°33' W 014°29'612.6
2017-Oct-09 23:00N 36°34' W 014°36'712.7
2017-Oct-09 22:26N 36°35' W 014°45'512.5
2017-Oct-09 22:00N 36°35' W 014°52'612.4
2017-Oct-09 21:30N 36°36' W 014°60'3412.3
2017-Oct-09 18:45N 36°39' W 015°42'512.4
2017-Oct-09 18:19N 36°40' W 015°49'512.4
2017-Oct-09 17:56N 36°40' W 015°54'512.5
2017-Oct-09 17:30N 36°41' W 016°01'612.2
2017-Oct-09 17:00N 36°42' W 016°09'3312.3
2017-Oct-09 14:18N 36°45' W 016°50'812.3
2017-Oct-09 13:40N 36°45' W 016°60'2812.3
2017-Oct-09 11:24N 36°48' W 017°34'512.7
2017-Oct-09 10:58N 36°49' W 017°41'812.5
2017-Oct-09 10:18N 36°50' W 017°52'412.3
2017-Oct-09 09:58N 36°50' W 017°57'27612.6
2017-Oct-08 12:02N 37°17' W 023°41'112.7
2017-Oct-08 11:57N 37°17' W 023°42'612.8
2017-Oct-08 11:30N 37°18' W 023°49'613.1
2017-Oct-08 11:00N 37°19' W 023°58'  

Dump ship's entire track history